Time;durP1;ratioP1;P1;durP2;ratioP2;P2;SDS_P1;SDS_P2;PMS_P1;PMS_P2;Temp;Humidity;BMP_temperature;BMP_pressure;BME280_temperature;BME280_humidity;BME280_pressure;Samples;Min_cycle;Max_cycle;Signal;HPM_P1;HPM_P2
2022/04/16 00:02:27;;;;;;;878.67;265.55;;;;;;;;;;6241824;23;20004;-89
2022/04/16 00:04:53;;;;;;;784.00;240.68;;;;;;;;;;6213923;23;20012;-90
2022/04/16 00:07:19;;;;;;;734.53;238.23;;;;;;;;;;6214707;23;20462;-89
2022/04/16 00:09:45;;;;;;;779.63;245.35;;;;;;;;;;6214146;23;20441;-89
2022/04/16 00:12:11;;;;;;;768.95;243.60;;;;;;;;;;6214273;23;20055;-91
2022/04/16 00:14:38;;;;;;;777.20;243.63;;;;;;;;;;6214001;23;20046;-90
2022/04/16 00:17:04;;;;;;;784.58;240.25;;;;;;;;;;6214142;23;20027;-91
2022/04/16 00:19:31;;;;;;;772.92;237.50;;;;;;;;;;6214946;23;20012;-90
2022/04/16 00:22:00;;;;;;;746.33;239.13;;;;;;;;;;6242108;23;20000;-90
2022/04/16 00:24:27;;;;;;;749.15;245.32;;;;;;;;;;6214725;23;20004;-90
2022/04/16 00:26:53;;;;;;;790.55;247.77;;;;;;;;;;6214137;23;20015;-90
2022/04/16 00:29:19;;;;;;;803.97;265.98;;;;;;;;;;6241376;23;20059;-92
2022/04/16 00:31:45;;;;;;;785.83;257.75;;;;;;;;;;6214413;23;20381;-91
2022/04/16 00:34:14;;;;;;;783.78;259.25;;;;;;;;;;6214567;23;19996;-91
2022/04/16 00:36:41;;;;;;;787.13;256.77;;;;;;;;;;6214268;23;20008;-89
2022/04/16 00:39:07;;;;;;;764.85;247.77;;;;;;;;;;6241208;23;19996;-91
2022/04/16 00:41:33;;;;;;;768.92;242.80;;;;;;;;;;6241437;23;20004;-89
2022/04/16 00:43:59;;;;;;;758.92;246.15;;;;;;;;;;6269011;22;20004;-86
2022/04/16 00:46:25;;;;;;;760.67;247.45;;;;;;;;;;6244203;23;20494;-90
2022/04/16 00:48:51;;;;;;;791.03;242.30;;;;;;;;;;6240189;23;20510;-90
2022/04/16 00:51:17;;;;;;;799.40;241.90;;;;;;;;;;6240781;23;20004;-91
2022/04/16 00:53:43;;;;;;;824.92;255.30;;;;;;;;;;6240391;23;20004;-90
2022/04/16 00:56:11;;;;;;;843.08;254.30;;;;;;;;;;6213849;23;20005;-91
2022/04/16 00:58:38;;;;;;;850.22;250.52;;;;;;;;;;6240598;23;20004;-92
2022/04/16 01:01:04;;;;;;;767.03;242.70;;;;;;;;;;6240771;23;20000;-90
2022/04/16 01:03:30;;;;;;;862.67;250.93;;;;;;;;;;6215084;23;20023;-92
2022/04/16 01:05:56;;;;;;;788.63;246.90;;;;;;;;;;6240541;23;20000;-90
2022/04/16 01:08:22;;;;;;;801.55;253.38;;;;;;;;;;6214022;23;20046;-91
2022/04/16 01:10:49;;;;;;;871.50;261.42;;;;;;;;;;6240173;23;19993;-91
2022/04/16 01:13:18;;;;;;;796.08;253.18;;;;;;;;;;6240696;23;20028;-92
2022/04/16 01:15:44;;;;;;;799.10;260.75;;;;;;;;;;6213571;23;20004;-88
2022/04/16 01:18:12;;;;;;;783.75;250.88;;;;;;;;;;6240560;23;19996;-89
2022/04/16 01:20:39;;;;;;;817.83;243.80;;;;;;;;;;6240753;23;20074;-90
2022/04/16 01:23:05;;;;;;;773.30;243.68;;;;;;;;;;6214091;23;20026;-90
2022/04/16 01:25:33;;;;;;;818.03;252.00;;;;;;;;;;6241767;23;20003;-92
2022/04/16 01:28:01;;;;;;;820.92;252.90;;;;;;;;;;6214780;23;20080;-91
2022/04/16 01:30:28;;;;;;;770.25;241.88;;;;;;;;;;6241706;23;20000;-91
2022/04/16 01:32:54;;;;;;;782.20;242.13;;;;;;;;;;6240354;23;20047;-91
2022/04/16 01:35:20;;;;;;;817.38;258.33;;;;;;;;;;6240699;23;20310;-90
2022/04/16 01:37:46;;;;;;;777.67;248.43;;;;;;;;;;6240567;23;20034;-90
2022/04/16 01:40:14;;;;;;;847.53;244.95;;;;;;;;;;6240805;23;20020;-92
2022/04/16 01:42:41;;;;;;;774.03;244.82;;;;;;;;;;6213127;23;20326;-91
2022/04/16 01:45:09;;;;;;;758.95;240.73;;;;;;;;;;6213561;23;20008;-91
2022/04/16 01:47:36;;;;;;;865.22;244.43;;;;;;;;;;6240824;23;20012;-91
2022/04/16 01:50:07;;;;;;;830.25;241.35;;;;;;;;;;6214259;23;20004;-89
2022/04/16 01:52:33;;;;;;;866.67;242.60;;;;;;;;;;6240373;23;20004;-88
2022/04/16 01:54:59;;;;;;;804.95;240.88;;;;;;;;;;6214338;23;20000;-91
2022/04/16 01:57:25;;;;;;;815.17;243.18;;;;;;;;;;6240138;23;20083;-89
2022/04/16 01:59:52;;;;;;;812.03;245.75;;;;;;;;;;6240029;23;20314;-90
2022/04/16 02:02:19;;;;;;;785.80;245.05;;;;;;;;;;6240241;23;20341;-92
2022/04/16 02:04:46;;;;;;;984.85;254.60;;;;;;;;;;6239800;23;20019;-91
2022/04/16 02:07:12;;;;;;;912.85;250.30;;;;;;;;;;6213459;23;20004;-91
2022/04/16 02:09:38;;;;;;;913.15;250.85;;;;;;;;;;6239826;23;20003;-92
2022/04/16 02:12:04;;;;;;;857.40;248.73;;;;;;;;;;6240052;23;19996;-90
2022/04/16 02:14:30;;;;;;;822.08;244.90;;;;;;;;;;6241506;23;20010;-90
2022/04/16 02:16:57;;;;;;;848.72;245.15;;;;;;;;;;6240232;23;20433;-90
2022/04/16 02:19:23;;;;;;;857.55;244.75;;;;;;;;;;6240244;23;20008;-91
2022/04/16 02:21:50;;;;;;;844.15;248.45;;;;;;;;;;6240172;23;20053;-91
2022/04/16 02:24:17;;;;;;;809.38;246.20;;;;;;;;;;6242534;23;20015;-89
2022/04/16 02:26:44;;;;;;;979.53;253.20;;;;;;;;;;6242526;23;20004;-91
2022/04/16 02:29:10;;;;;;;791.15;245.75;;;;;;;;;;6215340;23;20374;-90
2022/04/16 02:31:39;;;;;;;799.45;246.52;;;;;;;;;;6241722;23;20031;-92
2022/04/16 02:34:07;;;;;;;960.65;248.55;;;;;;;;;;6215061;23;20004;-89
2022/04/16 02:36:33;;;;;;;810.50;240.77;;;;;;;;;;6241644;23;20046;-90
2022/04/16 02:38:59;;;;;;;856.50;249.98;;;;;;;;;;6242899;23;20053;-91
2022/04/16 02:41:25;;;;;;;853.55;247.50;;;;;;;;;;6242172;23;20549;-91
2022/04/16 02:43:54;;;;;;;850.97;246.68;;;;;;;;;;6214817;23;20313;-90
2022/04/16 02:49:08;;;;;;;762.42;245.18;;;;;;;;;;6242057;23;20015;-91
2022/04/16 02:51:35;;;;;;;783.20;250.65;;;;;;;;;;6241483;23;20050;-90
2022/04/16 02:54:05;;;;;;;776.20;249.68;;;;;;;;;;6216549;23;20035;-92
2022/04/16 02:56:31;;;;;;;817.75;256.05;;;;;;;;;;6243473;23;20004;-92
2022/04/16 02:58:57;;;;;;;816.45;254.35;;;;;;;;;;6216762;23;20000;-91
2022/04/16 03:01:23;;;;;;;799.13;254.38;;;;;;;;;;6242215;23;20054;-91
2022/04/16 03:03:49;;;;;;;835.30;258.90;;;;;;;;;;6215168;23;20051;-90
2022/04/16 03:06:16;;;;;;;990.28;267.48;;;;;;;;;;6214757;23;20004;-90
2022/04/16 03:08:43;;;;;;;883.03;266.73;;;;;;;;;;6215035;23;20031;-90
2022/04/16 03:11:09;;;;;;;860.50;270.52;;;;;;;;;;6215177;23;20004;-91
2022/04/16 03:13:35;;;;;;;865.60;262.48;;;;;;;;;;6241664;23;20050;-90
2022/04/16 03:18:46;;;;;;;828.67;263.35;;;;;;;;;;6241535;23;20115;-90
2022/04/16 03:21:12;;;;;;;842.72;267.02;;;;;;;;;;6215082;23;20334;-90
2022/04/16 03:23:38;;;;;;;809.33;267.52;;;;;;;;;;6214524;23;20050;-91
2022/04/16 03:26:04;;;;;;;806.33;257.20;;;;;;;;;;6241648;23;20003;-89
2022/04/16 03:28:32;;;;;;;809.45;267.92;;;;;;;;;;6215572;23;20062;-91
2022/04/16 03:30:58;;;;;;;786.08;263.73;;;;;;;;;;6215636;23;20516;-91
2022/04/16 03:33:24;;;;;;;853.25;277.60;;;;;;;;;;6241447;23;20019;-89
2022/04/16 03:35:51;;;;;;;841.92;276.30;;;;;;;;;;6242154;23;20060;-89
2022/04/16 03:38:17;;;;;;;849.20;272.40;;;;;;;;;;6215406;23;20038;-90
2022/04/16 03:40:44;;;;;;;823.47;270.98;;;;;;;;;;6241991;23;20013;-91
2022/04/16 03:43:10;;;;;;;827.80;274.73;;;;;;;;;;6241945;23;20012;-90
2022/04/16 03:45:37;;;;;;;809.05;266.13;;;;;;;;;;6241993;23;20337;-93
2022/04/16 03:48:05;;;;;;;853.22;280.92;;;;;;;;;;6242043;23;20000;-87
2022/04/16 03:50:31;;;;;;;844.38;252.38;;;;;;;;;;6241153;23;20743;-89
2022/04/16 03:52:58;;;;;;;902.38;269.20;;;;;;;;;;6241495;23;20071;-89
2022/04/16 04:00:57;;;;;;;857.65;279.48;;;;;;;;;;6241379;23;19969;-89
2022/04/16 04:03:23;;;;;;;885.40;276.33;;;;;;;;;;6241295;23;20302;-88
2022/04/16 04:05:53;;;;;;;836.28;276.15;;;;;;;;;;6241260;23;20000;-89
2022/04/16 04:08:20;;;;;;;852.40;278.10;;;;;;;;;;6241016;23;20460;-88
2022/04/16 04:10:46;;;;;;;862.85;277.25;;;;;;;;;;6240947;23;20004;-88
2022/04/16 04:13:13;;;;;;;822.88;269.40;;;;;;;;;;6214252;23;20083;-88
2022/04/16 04:15:39;;;;;;;854.70;271.60;;;;;;;;;;6214279;23;20023;-88
2022/04/16 04:18:05;;;;;;;826.05;266.40;;;;;;;;;;6241093;23;20062;-89
2022/04/16 04:20:31;;;;;;;784.40;264.05;;;;;;;;;;6242064;23;19996;-87
2022/04/16 04:22:57;;;;;;;765.17;260.20;;;;;;;;;;6240895;23;20015;-89
2022/04/16 04:25:24;;;;;;;798.58;266.67;;;;;;;;;;6240849;23;20001;-89
2022/04/16 04:27:50;;;;;;;794.78;266.20;;;;;;;;;;6214170;23;20437;-90
2022/04/16 04:30:16;;;;;;;817.25;269.25;;;;;;;;;;6214199;23;20432;-89
2022/04/16 04:32:42;;;;;;;878.75;272.33;;;;;;;;;;6240821;23;20437;-89
2022/04/16 04:35:09;;;;;;;804.83;264.48;;;;;;;;;;6240912;23;20004;-89
2022/04/16 04:37:36;;;;;;;808.42;267.55;;;;;;;;;;6214983;23;20341;-88
2022/04/16 04:40:02;;;;;;;784.17;263.30;;;;;;;;;;6241712;23;20344;-88
2022/04/16 04:42:32;;;;;;;814.45;270.98;;;;;;;;;;6214421;23;20012;-91
2022/04/16 04:44:58;;;;;;;798.58;269.88;;;;;;;;;;6240943;23;20003;-90
2022/04/16 04:47:25;;;;;;;802.60;270.17;;;;;;;;;;6241356;23;20004;-90
2022/04/16 04:49:51;;;;;;;806.25;272.15;;;;;;;;;;6240999;23;20000;-89
2022/04/16 04:52:26;;;;;;;834.20;288.10;;;;;;;;;;6241277;23;20007;-91
2022/04/16 04:54:53;;;;;;;854.28;282.05;;;;;;;;;;6241540;23;20004;-91
2022/04/16 04:57:19;;;;;;;868.83;286.05;;;;;;;;;;6241208;23;20413;-89
2022/04/16 04:59:45;;;;;;;833.67;284.55;;;;;;;;;;6214606;23;20337;-90
2022/04/16 05:02:13;;;;;;;806.28;277.45;;;;;;;;;;6241460;23;20496;-91
2022/04/16 05:04:40;;;;;;;802.65;274.98;;;;;;;;;;6214353;23;20527;-92
2022/04/16 05:07:07;;;;;;;807.05;279.50;;;;;;;;;;6215295;23;20004;-90
2022/04/16 05:09:33;;;;;;;817.78;277.63;;;;;;;;;;6242536;23;20004;-90
2022/04/16 05:11:59;;;;;;;813.83;280.00;;;;;;;;;;6240946;23;20000;-87
2022/04/16 05:14:25;;;;;;;812.58;282.60;;;;;;;;;;6240774;23;20004;-86
2022/04/16 05:16:51;;;;;;;826.42;281.58;;;;;;;;;;6213849;23;20011;-86
2022/04/16 05:19:17;;;;;;;797.05;275.67;;;;;;;;;;6240793;23;20000;-86
2022/04/16 05:21:44;;;;;;;800.45;276.60;;;;;;;;;;6213732;23;20326;-88
2022/04/16 05:24:10;;;;;;;772.67;263.83;;;;;;;;;;6240768;23;20086;-86
2022/04/16 05:26:39;;;;;;;789.38;269.98;;;;;;;;;;6241687;23;20000;-86
2022/04/16 05:29:09;;;;;;;810.90;277.40;;;;;;;;;;6241752;23;20463;-86
2022/04/16 05:31:35;;;;;;;801.15;278.67;;;;;;;;;;6241543;23;20047;-85
2022/04/16 05:34:19;;;;;;;787.53;272.23;;;;;;;;;;6240436;23;19997;-85
2022/04/16 05:36:46;;;;;;;782.05;266.92;;;;;;;;;;6240753;23;20011;-86
2022/04/16 05:39:12;;;;;;;778.95;271.58;;;;;;;;;;6240530;23;19996;-85
2022/04/16 05:41:38;;;;;;;774.15;267.15;;;;;;;;;;6241848;23;20011;-85
2022/04/16 05:44:05;;;;;;;773.13;266.30;;;;;;;;;;6241467;23;20433;-85
2022/04/16 05:46:32;;;;;;;801.42;275.80;;;;;;;;;;6240419;23;20000;-87
2022/04/16 05:48:58;;;;;;;774.28;267.00;;;;;;;;;;6240794;23;20075;-86
2022/04/16 05:51:25;;;;;;;783.83;266.40;;;;;;;;;;6214001;23;20000;-88
2022/04/16 05:53:52;;;;;;;794.15;271.52;;;;;;;;;;6214148;23;20103;-90
2022/04/16 05:56:18;;;;;;;788.70;272.40;;;;;;;;;;6215024;23;20000;-89
2022/04/16 05:58:45;;;;;;;800.90;275.60;;;;;;;;;;6215882;23;20376;-90
2022/04/16 06:01:12;;;;;;;799.20;276.67;;;;;;;;;;6215736;23;20203;-89
2022/04/16 06:03:41;;;;;;;806.35;277.92;;;;;;;;;;6216945;23;20020;-89
2022/04/16 06:06:12;;;;;;;806.60;278.73;;;;;;;;;;6217112;23;20016;-89
2022/04/16 06:08:38;;;;;;;797.80;275.10;;;;;;;;;;6243746;23;20010;-90
2022/04/16 06:11:04;;;;;;;815.85;281.60;;;;;;;;;;6242834;23;20000;-89
2022/04/16 06:13:31;;;;;;;805.58;276.88;;;;;;;;;;6215790;23;20012;-89
2022/04/16 06:16:00;;;;;;;814.67;281.23;;;;;;;;;;6242544;23;20011;-88
2022/04/16 06:18:26;;;;;;;813.05;280.70;;;;;;;;;;6242846;23;20004;-89
2022/04/16 06:20:52;;;;;;;839.10;290.98;;;;;;;;;;6215780;23;20046;-90
2022/04/16 06:23:22;;;;;;;826.13;286.40;;;;;;;;;;6242358;23;20016;-90
2022/04/16 06:25:48;;;;;;;824.20;286.23;;;;;;;;;;6242696;23;19996;-89
2022/04/16 06:28:14;;;;;;;805.67;277.08;;;;;;;;;;6215606;23;20019;-91
2022/04/16 06:30:40;;;;;;;822.72;284.00;;;;;;;;;;6243943;23;20007;-89
2022/04/16 06:33:06;;;;;;;817.47;281.25;;;;;;;;;;6243461;23;20050;-89
2022/04/16 06:35:33;;;;;;;819.13;283.58;;;;;;;;;;6242604;23;20023;-88
2022/04/16 06:37:59;;;;;;;824.92;285.95;;;;;;;;;;6242274;23;20004;-88
2022/04/16 06:40:25;;;;;;;827.63;285.70;;;;;;;;;;6215493;23;20010;-89
2022/04/16 06:42:54;;;;;;;841.28;288.13;;;;;;;;;;6242155;23;20090;-90
2022/04/16 06:45:20;;;;;;;829.95;284.15;;;;;;;;;;6215502;23;20007;-90
2022/04/16 06:47:46;;;;;;;839.30;289.00;;;;;;;;;;6242223;23;20008;-91
2022/04/16 06:50:12;;;;;;;801.38;272.88;;;;;;;;;;6242601;23;20020;-88
2022/04/16 06:52:38;;;;;;;780.88;265.33;;;;;;;;;;6243158;23;20007;-88
2022/04/16 06:55:05;;;;;;;801.50;273.05;;;;;;;;;;6242323;23;20000;-90
2022/04/16 06:57:31;;;;;;;794.50;269.98;;;;;;;;;;6242151;23;20075;-89
2022/04/16 06:59:57;;;;;;;799.42;271.85;;;;;;;;;;6242483;23;20397;-90
2022/04/16 07:02:23;;;;;;;806.97;274.58;;;;;;;;;;6215551;23;20040;-90
2022/04/16 07:04:49;;;;;;;818.45;277.80;;;;;;;;;;6215353;23;20052;-90
2022/04/16 07:07:15;;;;;;;840.63;284.80;;;;;;;;;;6215501;23;20008;-90
2022/04/16 07:09:41;;;;;;;819.58;278.25;;;;;;;;;;6243287;23;20004;-91
2022/04/16 07:12:11;;;;;;;841.28;285.15;;;;;;;;;;6242378;23;20071;-92
2022/04/16 07:14:40;;;;;;;822.70;277.58;;;;;;;;;;6242638;23;20050;-91
2022/04/16 07:17:09;;;;;;;831.42;280.15;;;;;;;;;;6215877;23;20032;-90
2022/04/16 07:19:36;;;;;;;825.00;278.48;;;;;;;;;;6216135;23;20008;-91
2022/04/16 07:22:02;;;;;;;839.75;284.60;;;;;;;;;;6242510;23;20080;-90
2022/04/16 07:24:28;;;;;;;842.10;283.98;;;;;;;;;;6243961;23;20071;-91
2022/04/16 07:26:55;;;;;;;863.95;291.35;;;;;;;;;;6242366;23;19996;-89
2022/04/16 07:29:22;;;;;;;826.60;278.20;;;;;;;;;;6215212;23;20077;-89
2022/04/16 07:31:48;;;;;;;827.53;278.33;;;;;;;;;;6242043;23;20003;-92
2022/04/16 07:34:14;;;;;;;830.40;276.98;;;;;;;;;;6216306;23;20451;-88
2022/04/16 07:36:42;;;;;;;818.03;271.92;;;;;;;;;;6215972;23;20015;-89
2022/04/16 07:39:08;;;;;;;818.88;271.73;;;;;;;;;;6242177;23;20004;-90
2022/04/16 07:41:34;;;;;;;832.10;274.27;;;;;;;;;;6215241;23;20300;-91
2022/04/16 07:44:03;;;;;;;832.17;273.73;;;;;;;;;;6215564;23;20012;-91
2022/04/16 07:46:33;;;;;;;838.55;277.10;;;;;;;;;;6241882;23;20003;-91
2022/04/16 07:48:59;;;;;;;841.60;277.30;;;;;;;;;;6214759;23;20495;-91
2022/04/16 07:51:26;;;;;;;851.00;279.77;;;;;;;;;;6241513;23;20083;-90
2022/04/16 07:53:52;;;;;;;852.55;280.05;;;;;;;;;;6241667;23;20004;-91
2022/04/16 07:56:19;;;;;;;867.50;285.58;;;;;;;;;;6238931;23;20007;-90
2022/04/16 07:58:45;;;;;;;857.63;279.83;;;;;;;;;;6211169;23;20004;-92
2022/04/16 08:01:11;;;;;;;853.40;276.15;;;;;;;;;;6242672;23;19996;-92
2022/04/16 08:03:38;;;;;;;864.72;279.23;;;;;;;;;;6242306;23;20012;-92
2022/04/16 08:06:04;;;;;;;882.15;284.55;;;;;;;;;;6214536;23;20007;-92
2022/04/16 08:08:30;;;;;;;904.28;292.50;;;;;;;;;;6241807;23;20000;-93
2022/04/16 08:11:00;;;;;;;882.45;282.75;;;;;;;;;;6241666;23;20433;-91
2022/04/16 08:13:26;;;;;;;899.70;286.80;;;;;;;;;;6242934;23;20468;-92
2022/04/16 08:15:52;;;;;;;892.83;285.27;;;;;;;;;;6241956;23;20079;-90
2022/04/16 08:18:39;;;;;;;897.30;286.40;;;;;;;;;;6215390;23;20004;-91
2022/04/16 08:24:38;;;;;;;981.50;312.50;;;;;;;;;;6186937;23;20012;-91
2022/04/16 08:27:05;;;;;;;970.58;309.92;;;;;;;;;;6214975;23;20008;-90
2022/04/16 08:29:31;;;;;;;955.63;304.50;;;;;;;;;;6241924;23;19996;-90
2022/04/16 08:31:59;;;;;;;955.25;302.83;;;;;;;;;;6252681;23;20000;-90
2022/04/16 08:34:25;;;;;;;961.40;303.13;;;;;;;;;;6241329;23;19996;-88
2022/04/16 08:36:51;;;;;;;970.03;303.63;;;;;;;;;;6241481;23;20011;-90
2022/04/16 08:39:20;;;;;;;970.28;303.98;;;;;;;;;;6242507;23;20329;-92
2022/04/16 08:41:46;;;;;;;953.92;297.00;;;;;;;;;;6216239;23;20012;-91
2022/04/16 08:44:20;;;;;;;968.80;301.58;;;;;;;;;;6241709;23;20008;-92
2022/04/16 08:46:48;;;;;;;975.33;303.15;;;;;;;;;;6215532;23;20087;-91
2022/04/16 08:49:17;;;;;;;987.70;305.92;;;;;;;;;;6242343;23;20000;-91
2022/04/16 08:51:43;;;;;;;933.85;287.20;;;;;;;;;;6215667;23;20020;-90
2022/04/16 08:54:09;;;;;;;931.45;284.52;;;;;;;;;;6213877;23;20429;-90
2022/04/16 08:56:36;;;;;;;946.50;287.80;;;;;;;;;;6241435;23;20011;-90
2022/04/16 08:59:02;;;;;;;937.85;285.52;;;;;;;;;;6240948;23;20400;-91
2022/04/16 09:01:28;;;;;;;932.75;281.92;;;;;;;;;;6214478;23;20008;-87
2022/04/16 09:03:58;;;;;;;941.05;285.73;;;;;;;;;;6241511;23;20016;-89
2022/04/16 09:06:25;;;;;;;950.58;289.95;;;;;;;;;;6214401;23;20000;-90
2022/04/16 09:08:51;;;;;;;967.72;295.52;;;;;;;;;;6241443;23;20000;-88
2022/04/16 09:11:22;;;;;;;985.78;300.27;;;;;;;;;;6215622;23;20000;-91
2022/04/16 09:13:51;;;;;;;1001.97;305.48;;;;;;;;;;6215574;23;20011;-89
2022/04/16 09:16:17;;;;;;;1004.95;304.65;;;;;;;;;;6242271;23;20310;-89
2022/04/16 09:18:50;;;;;;;993.95;302.50;;;;;;;;;;6241245;23;20035;-90
2022/04/16 09:21:16;;;;;;;1000.63;304.92;;;;;;;;;;6241979;23;20211;-91
2022/04/16 09:23:47;;;;;;;983.28;298.33;;;;;;;;;;6241241;23;20008;-91
2022/04/16 09:26:13;;;;;;;1007.00;306.95;;;;;;;;;;6241217;23;20049;-90
2022/04/16 09:28:46;;;;;;;1049.68;316.35;;;;;;;;;;6241218;23;20229;-88
2022/04/16 09:31:12;;;;;;;987.42;300.25;;;;;;;;;;6214962;23;20058;-89
2022/04/16 09:33:38;;;;;;;978.30;296.60;;;;;;;;;;6243406;23;19996;-90
2022/04/16 09:36:07;;;;;;;970.83;295.40;;;;;;;;;;6216475;23;20008;-89
2022/04/16 09:38:37;;;;;;;979.90;296.00;;;;;;;;;;6216426;23;20007;-89
2022/04/16 09:41:08;;;;;;;978.80;296.55;;;;;;;;;;6216229;23;20353;-90
2022/04/16 09:43:35;;;;;;;980.13;296.50;;;;;;;;;;6216183;23;20016;-89
2022/04/16 09:46:11;;;;;;;978.15;295.70;;;;;;;;;;6216331;23;20083;-89
2022/04/16 09:48:37;;;;;;;982.05;298.40;;;;;;;;;;6243416;23;20027;-90
2022/04/16 09:51:06;;;;;;;987.47;299.65;;;;;;;;;;6216607;23;20004;-89
2022/04/16 09:53:36;;;;;;;996.33;302.38;;;;;;;;;;6243241;23;20377;-91
2022/04/16 09:56:02;;;;;;;1011.45;304.60;;;;;;;;;;6216488;23;20074;-89
2022/04/16 09:58:40;;;;;;;1014.58;305.55;;;;;;;;;;6216344;23;20051;-89
2022/04/16 10:01:10;;;;;;;999.05;300.67;;;;;;;;;;6216392;23;20016;-89
2022/04/16 10:03:36;;;;;;;993.20;297.48;;;;;;;;;;6216186;23;20077;-90
2022/04/16 10:06:02;;;;;;;993.35;296.33;;;;;;;;;;6243615;23;20421;-90
2022/04/16 10:08:28;;;;;;;1020.03;304.00;;;;;;;;;;6243276;23;20004;-89
2022/04/16 10:10:57;;;;;;;1005.67;302.35;;;;;;;;;;6243116;23;20004;-89
2022/04/16 10:13:23;;;;;;;978.50;292.75;;;;;;;;;;6216116;23;20008;-90
2022/04/16 10:16:15;;;;;;;982.20;292.75;;;;;;;;;;6244216;23;19996;-90
2022/04/16 10:18:44;;;;;;;966.88;292.42;;;;;;;;;;6236296;23;20008;-89
2022/04/16 10:21:15;;;;;;;977.03;293.73;;;;;;;;;;6242606;23;20000;-88
2022/04/16 10:23:41;;;;;;;996.72;294.50;;;;;;;;;;6242644;23;20038;-91
2022/04/16 10:26:17;;;;;;;1001.03;293.63;;;17.50;99.90;;;;;;6242893;23;20000;-90
2022/04/16 10:28:55;;;;;;;984.88;288.95;;;17.60;99.90;;;;;;6215891;23;20579;-89
2022/04/16 10:31:29;;;;;;;994.70;292.70;;;18.30;99.90;;;;;;6216669;23;20495;-89
2022/04/16 10:34:00;;;;;;;989.35;292.35;;;18.10;99.90;;;;;;6215726;23;20028;-88
2022/04/16 10:36:28;;;;;;;996.63;293.13;;;17.70;99.90;;;;;;6215614;23;20098;-90
2022/04/16 10:38:54;;;;;;;985.88;288.92;;;17.70;99.90;;;;;;6215983;23;20005;-90
2022/04/16 10:41:20;;;;;;;993.83;291.17;;;17.60;99.90;;;;;;6216729;23;20008;-90
2022/04/16 10:44:00;;;;;;;1016.83;298.42;;;17.60;99.90;;;;;;6241846;23;20012;-90
2022/04/16 10:46:46;;;;;;;1020.92;300.05;;;18.00;99.90;;;;;;6242503;23;20058;-89
2022/04/16 10:49:13;;;;;;;1024.70;300.55;;;17.60;99.90;;;;;;6215521;23;20004;-89
2022/04/16 10:51:39;;;;;;;1026.68;300.55;;;17.60;99.90;;;;;;6215677;23;20000;-89
2022/04/16 10:54:32;;;;;;;1004.10;295.67;;;17.30;99.90;;;;;;6216148;23;20092;-90
2022/04/16 10:56:59;;;;;;;999.65;294.45;;;16.80;99.90;;;;;;6215597;23;20027;-90
2022/04/16 10:59:45;;;;;;;995.78;292.33;;;17.30;99.90;;;;;;6215860;23;20026;-90
2022/04/16 11:02:21;;;;;;;1027.25;302.48;;;17.30;99.90;;;;;;6242410;23;20083;-90
2022/04/16 11:05:05;;;;;;;1030.03;300.60;;;17.60;99.90;;;;;;6214935;23;20020;-88
2022/04/16 11:07:35;;;;;;;1003.03;292.48;;;17.80;99.90;;;;;;6215503;23;20057;-88
2022/04/16 11:10:09;;;;;;;1019.05;296.20;;;18.00;99.90;;;;;;6215503;23;20349;-89
2022/04/16 11:12:39;;;;;;;1021.38;298.15;;;18.10;99.90;;;;;;6215135;23;20512;-90
2022/04/16 11:15:18;;;;;;;1019.03;297.33;;;17.70;99.90;;;;;;6215265;23;20004;-90
2022/04/16 11:17:44;;;;;;;1061.00;310.40;;;17.90;99.90;;;;;;6244265;23;20078;-89
2022/04/16 11:20:10;;;;;;;1021.13;296.75;;;17.80;99.90;;;;;;6242035;23;20111;-90
2022/04/16 11:22:38;;;;;;;1023.72;298.27;;;17.90;99.90;;;;;;6241916;23;20015;-89
2022/04/16 11:25:07;;;;;;;;;;;18.00;99.90;;;;;;6242302;23;20003;-89
2022/04/16 11:36:04;;;;;;;1077.80;314.48;;;18.20;99.90;;;;;;6241987;23;20080;-87
2022/04/16 11:38:33;;;;;;;1068.25;312.15;;;18.20;99.90;;;;;;6214998;23;20015;-90
2022/04/16 11:40:59;;;;;;;;;;;18.00;99.90;;;;;;6242975;23;20000;-89
2022/04/16 11:43:28;;;;;;;1020.40;300.67;;;18.00;99.90;;;;;;6216075;23;19908;-92
2022/04/16 11:45:55;;;;;;;1022.88;299.20;;;17.90;99.90;;;;;;6242389;23;20448;-88
2022/04/16 11:48:21;;;;;;;1005.97;293.92;;;18.00;99.90;;;;;;6241504;23;20012;-88
2022/04/16 11:50:47;;;;;;;1024.85;298.67;;;18.10;99.90;;;;;;6214622;23;20183;-88
2022/04/16 11:53:15;;;;;;;1024.90;300.15;;;18.20;99.90;;;;;;6241235;23;20071;-92
2022/04/16 11:55:51;;;;;;;1016.97;296.88;;;18.20;99.90;;;;;;6241866;23;20433;-92
2022/04/16 11:58:17;;;;;;;1053.10;307.02;;;18.30;99.90;;;;;;6241687;23;20011;-91
2022/04/16 12:00:49;;;;;;;1105.10;319.58;;;18.20;99.90;;;;;;6241746;23;20000;-89
2022/04/16 12:03:17;;;;;;;1015.40;297.13;;;18.30;99.90;;;;;;6241579;23;20399;-88
2022/04/16 12:05:43;;;;;;;1022.13;297.33;;;18.20;99.90;;;;;;6241661;23;20000;-90
2022/04/16 12:08:19;;;;;;;1035.18;302.00;;;18.00;99.90;;;;;;6242120;23;20008;-89
2022/04/16 12:10:50;;;;;;;1040.35;303.10;;;18.10;99.90;;;;;;6242221;23;20007;-89
2022/04/16 12:13:16;;;;;;;1045.53;304.13;;;18.20;99.90;;;;;;6242211;23;20008;-90
2022/04/16 12:15:46;;;;;;;1046.18;303.65;;;18.30;99.90;;;;;;6241858;23;20000;-90
2022/04/16 12:18:23;;;;;;;1051.10;306.52;;;18.50;99.90;;;;;;6242142;23;20020;-91
2022/04/16 12:20:49;;;;;;;1033.13;299.92;;;18.40;99.90;;;;;;6242251;23;20244;-91
2022/04/16 12:23:40;;;;;;;1039.85;302.67;;;18.50;99.90;;;;;;6214974;23;20070;-90
2022/04/16 12:26:18;;;;;;;;;;;;;;;;;;;;;
2022/04/16 12:28:56;;;;;;;6.53;5.45;;;18.50;99.90;;;;;;6243507;23;20083;-89
2022/04/16 12:31:26;;;;;;;944.75;278.70;;;18.40;99.90;;;;;;6214811;23;20000;-89
2022/04/16 12:33:52;;;;;;;6.35;4.47;;;18.40;99.90;;;;;;6214748;23;20058;-88
2022/04/16 12:36:17;;;;;;;12.95;4.88;;;18.50;99.90;;;;;;6214713;23;20007;-89
2022/04/16 12:38:43;;;;;;;7.63;4.10;;;18.60;99.90;;;;;;6241145;23;20004;-88
2022/04/16 12:41:10;;;;;;;6.03;4.10;;;18.40;99.90;;;;;;6240971;23;20001;-87
2022/04/16 12:43:40;;;;;;;5.60;4.10;;;18.60;99.90;;;;;;6241312;23;20012;-89
2022/04/16 12:46:06;;;;;;;7.55;5.95;;;18.60;99.90;;;;;;6214571;23;20024;-88
2022/04/16 12:48:32;;;;;;;8.15;5.88;;;18.50;99.90;;;;;;6214276;23;20349;-89
2022/04/16 12:50:58;;;;;;;8.07;6.00;;;18.50;99.90;;;;;;6215343;23;20390;-88
2022/04/16 12:53:24;;;;;;;9.25;5.45;;;18.70;99.90;;;;;;6214343;23;20468;-91
2022/04/16 12:55:51;;;;;;;5.47;3.85;;;18.70;99.90;;;;;;6241177;23;20023;-89
2022/04/16 12:58:16;;;;;;;7.60;3.00;;;18.70;99.90;;;;;;6241135;23;20060;-90
2022/04/16 13:00:45;;;;;;;7.88;5.00;;;18.80;99.90;;;;;;6240828;23;20050;-88
2022/04/16 13:03:11;;;;;;;5.97;3.60;;;18.70;99.90;;;;;;6213988;23;20093;-89
2022/04/16 13:05:37;;;;;;;3.67;2.83;;;18.70;99.90;;;;;;6240416;23;20368;-87
2022/04/16 13:08:03;;;;;;;2.95;2.10;;;18.90;99.90;;;;;;6240769;23;20306;-88
2022/04/16 13:10:29;;;;;;;5.47;2.45;;;18.90;99.90;;;;;;6241456;23;20050;-89
2022/04/16 13:12:54;;;;;;;4.75;2.50;;;18.90;99.90;;;;;;6240828;23;20004;-88
2022/04/16 13:15:20;;;;;;;3.22;1.60;;;19.00;99.90;;;;;;6240813;23;20025;-89
2022/04/16 13:17:46;;;;;;;3.88;1.30;;;19.00;99.90;;;;;;6214142;23;20004;-88
2022/04/16 13:20:12;;;;;;;4.00;1.38;;;18.80;99.90;;;;;;6240666;23;19997;-89
2022/04/16 13:22:38;;;;;;;1.88;1.40;;;18.70;99.90;;;;;;6213633;23;20008;-89
2022/04/16 13:25:05;;;;;;;3.30;1.48;;;18.80;99.90;;;;;;6240635;23;20004;-90
2022/04/16 13:27:33;;;;;;;2.40;1.80;;;;;;;;;;6242335;23;19996;-89
2022/04/16 13:29:59;;;;;;;2.80;1.35;;;19.00;99.90;;;;;;6215050;23;20050;-89
2022/04/16 13:32:25;;;;;;;2.88;1.20;;;19.10;99.90;;;;;;6240974;23;20024;-90
2022/04/16 13:34:50;;;;;;;1.40;1.27;;;18.90;99.90;;;;;;6214063;23;20031;-89
2022/04/16 13:37:16;;;;;;;2.38;1.13;;;18.80;99.90;;;;;;6240684;23;20050;-89
2022/04/16 13:42:26;;;;;;;32.08;5.95;;;19.00;99.90;;;;;;6240518;23;20030;-88
2022/04/16 13:44:53;;;;;;;3.53;1.50;;;19.00;99.90;;;;;;6213901;23;20008;-87
2022/04/16 13:47:20;;;;;;;9.32;1.77;;;;;;;;;;6240409;23;20318;-88
2022/04/16 13:49:47;;;;;;;1.45;1.10;;;;;;;;;;6240404;23;20004;-87
2022/04/16 13:52:13;;;;;;;3.47;1.50;;;;;;;;;;6240430;23;20023;-86
2022/04/16 13:54:39;;;;;;;5.72;1.58;;;;;;;;;;6240533;23;20340;-88
2022/04/16 13:57:06;;;;;;;2.42;1.45;;;;;;;;;;6240187;23;20004;-86
2022/04/16 13:59:32;;;;;;;1.73;1.50;;;;;;;;;;6241604;23;20004;-87
2022/04/16 14:01:58;;;;;;;4.93;1.60;;;;;;;;;;6240453;23;20050;-87